Torbat-Heydarieh, Iran
Current Conditions -  °F | °C
As of 4:30 AM on Friday 28 Nov 2014 (Local Time) from OIMM Reporting Station
Haze Haze  
Wind Chill:   Ceiling: 500
Heat Index:   Visibility: 0.62mi
Dew Point:   Wind: 5mph
Humidity: 100%   Direction: 50°NE
Pressure: 30.15"   Gusts: NA
Location:  35.27°N, 59.22°E
Report Text: OIMM 280130Z 05004KT 1000 BR R13/P2000 R31/0750U OVC00504/04 Q1021 A3015
Loading
Personal Weather Stations






























Interactive Weather Map New forecast layout! Learn more

10-Day Weather Forecast

Advertisements
Track Severe Weather on mobile